• Join FlightAware (Why Join?)
  • Login
  • US Flag 
01:59AM EDT


 

Airport Tracker/Info


-or-


 

Live Flight TrackerFlight Track Log ✈ VRT51 ✈ 21-Aug-2013 ✈ KBNA - KLIT

Flight Track Log - Related Links

Times and Time Zones

All times are in EDT time to prevent confusion due to time zone crossing. See the VRT51 flight status page for this flight to view local times or setup timezone preferences in your user account.

Time Position Orientation Groundspeed Altitude Reporting Facility
EDT Latitude Longitude Course Direction KTS MPH feet Rate Location/Type
01:22PM 36.0833 -86.7000 270° West 193 222 2,000  Level Nashville TRACON
01:23PM 36.0833 -86.7333 270° West 211 243 3,100 2,460 Climbing Nashville TRACON
01:24PM 36.1167 -86.8167 296° West 255 293 5,700 3,000 Climbing Nashville TRACON
01:25PM 36.1500 -86.8833 302° West 261 300 9,200 3,240 Climbing Nashville TRACON
01:26PM 36.1453 -86.9539 265° West 259 298 10,900 2,580 Climbing Memphis Center
01:27PM 36.1308 -87.0394 258° West 329 379 13,400 2,040 Climbing Memphis Center
01:28PM 36.1092 -87.1636 258° West 348 400 15,000 1,620 Climbing Memphis Center
01:29PM 36.0853 -87.2931 257° West 383 441 16,700 1,920 Climbing Memphis Center
01:30PM 36.0553 -87.4303 255° West 403 464 18,900 3,000 Climbing Memphis Center
01:31PM 36.0292 -87.5669 257° West 414 476 22,800 2,100 Climbing Memphis Center
01:32PM 36.0047 -87.6858 256° West 409 471 23,100 1,500 Climbing Memphis Center
01:33PM 35.9783 -87.8203 256° West 409 471 25,800 2,820 Climbing Memphis Center
01:34PM 35.9517 -87.9544 256° West 409 471 28,800 2,400 Climbing Memphis Center
01:35PM 35.9250 -88.0781 255° West 387 445 30,700 1,560 Climbing Memphis Center
01:36PM 35.9000 -88.2019 256° West 380 437 32,000 600 Climbing Memphis Center
01:37PM 35.8733 -88.3436 257° West 394 453 32,000  Level Memphis Center
01:38PM 35.8383 -88.5056 255° West 422 486 32,000  Level Memphis Center
01:39PM 35.8092 -88.6547 256° West 442 509 32,000  Level Memphis Center
01:40PM 35.7797 -88.8089 257° West 456 525 32,000  Level Memphis Center
01:41PM 35.7503 -88.9578 256° West 456 525 32,000  Level Memphis Center
01:42PM 35.7186 -89.1117 256° West 456 525 32,000  Level Memphis Center
01:43PM 35.6864 -89.2300 251° West 456 525 32,000  Level Memphis Center
01:44PM 35.6503 -89.3964 255° West 456 525 32,000  Level Memphis Center
01:45PM 35.6075 -89.5603 252° West 462 532 32,000  Level Memphis Center
01:46PM 35.5689 -89.7086 252° West 462 532 32,000  Level Memphis Center
01:47PM 35.5300 -89.8544 252° West 462 532 32,000  Level Memphis Center
01:48PM 35.4908 -90.0078 253° West 462 532 32,000 -480 Level Memphis Center
01:49PM 35.4514 -90.1558 252° West 462 532 31,100 -1,200 Descending Memphis Center
01:50PM 35.4119 -90.2983 251° West 451 519 29,600 -1,500 Descending Memphis Center
01:51PM 35.3725 -90.4461 252° West 451 519 28,100 -1,560 Descending Memphis Center
01:52PM 35.3325 -90.5964 252° West 462 532 26,500 -1,560 Descending Memphis Center
01:53PM 35.2906 -90.7489 251° West 462 532 25,000 -1,260 Descending Memphis Center
01:54PM 35.2461 -90.9011 250° West 468 539 24,000 -660 Descending Memphis Center
01:55PM 35.2100 -91.0433 253° West 456 525 23,700 -1,740 Descending Memphis Center
01:56PM 35.1717 -91.1800 251° West 446 513 20,600 -3,480 Descending Memphis Center
01:57PM 35.1372 -91.3119 252° West 417 480 16,800 -3,720 Descending Memphis Center
01:57PM 35.1053 -91.4156 249° West 385 443 13,800 -3,060 Descending Memphis Center
01:59PM 35.0475 -91.5544 243° Southwest 367 422 10,600 -1,800 Descending Memphis Center
01:59PM 35.0175 -91.6528 250° West 360 414 10,000 -360 Descending Memphis Center
02:00PM 34.9850 -91.7639 250° West 317 365 10,000 -780 Level Memphis Center
02:01PM 34.9608 -91.8547 252° West 290 334 8,500 -1,800 Descending Memphis Center
02:03PM 34.9367 -91.9531 253° West 284 327 6,400 -1,980 Descending Memphis Center
02:03PM 34.9367 -91.9531 253° West 302 348 6,500 -1,920 Climbing Memphis Center
02:04PM 34.9083 -92.0386 248° West 284 327 4,500 -1,260 Descending Memphis Center
02:05PM 34.8739 -92.1189 242° Southwest 274 315 4,000 -660 Descending Memphis Center
02:06PM 34.8231 -92.1811 225° Southwest 232 267 3,200 -1,200 Descending Memphis Center
02:07PM 34.7911 -92.2258 229° Southwest 233 268 1,700 -1,080 Descending Memphis Center
02:08PM 34.7528 -92.2706 224° Southwest 212 244 1,100 4,140 Descending Memphis Center
02:09PM 34.7103 -92.3200 224° Southwest 212 244 10,000 4,440 Climbing Memphis Center
02:10PM 34.6678 -92.3697 224° Southwest 212 244 10,000  Level Memphis Center
02:11PM 34.6253 -92.4192 224° Southwest 212 244 10,000  Level Memphis Center
02:12PM 34.5997 -92.4486 223° Southwest 212 244 10,000  Level Memphis Center
02:13PM 34.6510 -92.3471 58° Northeast  Level FlightAware Approximate
02:20PM 34.7167 -92.2167 59° Northeast  Level FlightAware Approximate
02:21PM 34.7294 -92.2248 59° Northeast  Level Estimated
02:22PM 34.7294 -92.2248 59° Northeast  Level Estimated